createdAt,value
2017-04-04T00:00:25.717Z,0
2017-04-04T00:01:35.970Z,0
2017-04-04T00:02:46.223Z,0
2017-04-04T00:03:56.476Z,0
2017-04-04T00:05:06.462Z,0
2017-04-04T00:06:16.723Z,0
2017-04-04T00:07:26.979Z,0
2017-04-04T00:08:36.922Z,0
2017-04-04T00:09:47.181Z,0
2017-04-04T00:10:57.440Z,0
2017-04-04T00:12:07.699Z,0
2017-04-04T00:13:17.977Z,0
2017-04-04T00:14:27.923Z,0
2017-04-04T00:15:37.863Z,0
2017-04-04T00:16:48.125Z,0
2017-04-04T00:17:58.380Z,0
2017-04-04T00:19:08.636Z,0
2017-04-04T00:20:18.263Z,0
2017-04-04T00:21:28.526Z,0
2017-04-04T00:22:38.787Z,0
2017-04-04T00:23:49.049Z,0
2017-04-04T00:24:59.305Z,0
2017-04-04T00:26:09.568Z,0
2017-04-04T00:27:19.821Z,0
2017-04-04T00:28:30.072Z,0
2017-04-04T00:29:40.329Z,0
2017-04-04T00:30:50.265Z,0
2017-04-04T00:32:00.565Z,0
2017-04-04T00:33:10.819Z,0
2017-04-04T00:34:20.813Z,0
2017-04-04T00:35:31.061Z,0
2017-04-04T00:36:41.356Z,0
2017-04-04T00:37:51.298Z,0
2017-04-04T00:39:01.552Z,0
2017-04-04T00:40:11.812Z,0
2017-04-04T00:41:22.068Z,0
2017-04-04T00:42:31.693Z,0
2017-04-04T00:43:41.944Z,0
2017-04-04T00:44:52.220Z,0
2017-04-04T00:46:02.477Z,0
2017-04-04T00:47:12.735Z,0
2017-04-04T00:48:22.986Z,0
2017-04-04T00:49:32.925Z,0
2017-04-04T00:50:43.188Z,0
2017-04-04T00:51:53.442Z,0
2017-04-04T00:53:03.699Z,0
2017-04-04T00:54:13.958Z,0
2017-04-04T00:55:24.210Z,0
2017-04-04T00:56:34.467Z,0
2017-04-04T00:57:44.719Z,0
2017-04-04T00:58:54.663Z,0
2017-04-04T01:00:04.920Z,0
2017-04-04T01:01:15.179Z,0
2017-04-04T01:02:25.433Z,0
2017-04-04T01:03:35.693Z,0
2017-04-04T01:04:45.945Z,0
2017-04-04T01:05:55.891Z,0
2017-04-04T01:07:06.154Z,0
2017-04-04T01:08:16.405Z,0
2017-04-04T01:09:26.393Z,0
2017-04-04T01:10:36.649Z,0
2017-04-04T01:11:46.587Z,0
2017-04-04T01:12:56.843Z,0
2017-04-04T01:14:07.102Z,0
2017-04-04T01:15:17.045Z,0
2017-04-04T01:16:27.303Z,0
2017-04-04T01:17:37.551Z,0
2017-04-04T01:18:47.809Z,0
2017-04-04T01:19:58.068Z,0
2017-04-04T01:21:08.323Z,0
2017-04-04T01:22:18.589Z,0
2017-04-04T01:23:28.528Z,0
2017-04-04T01:24:38.789Z,0
2017-04-04T01:25:49.041Z,0
2017-04-04T01:26:59.302Z,0
2017-04-04T01:28:09.563Z,0
2017-04-04T01:29:19.186Z,0
2017-04-04T01:30:28.499Z,0
2017-04-04T01:31:38.762Z,0
2017-04-04T01:32:49.059Z,0
2017-04-04T01:33:58.999Z,0
2017-04-04T01:35:09.258Z,0
2017-04-04T01:36:19.513Z,0
2017-04-04T01:37:29.764Z,0
2017-04-04T01:38:40.015Z,0
2017-04-04T01:39:50.274Z,0
2017-04-04T01:41:00.526Z,0
2017-04-04T01:42:10.517Z,0
2017-04-04T01:43:20.771Z,0
2017-04-04T01:44:31.028Z,0
2017-04-04T01:45:41.281Z,0
2017-04-04T01:46:51.542Z,0
2017-04-04T01:48:01.487Z,0
2017-04-04T01:49:11.742Z,0
2017-04-04T01:50:22.007Z,0
2017-04-04T01:51:32.260Z,0
2017-04-04T01:52:42.515Z,0
2017-04-04T01:53:52.768Z,0
2017-04-04T01:55:03.021Z,0
2017-04-04T01:56:13.283Z,0
2017-04-04T01:57:23.225Z,0
2017-04-04T01:58:33.488Z,0
2017-04-04T01:59:43.744Z,0
2017-04-04T02:00:54.002Z,0
2017-04-04T02:02:04.260Z,0
2017-04-04T02:03:14.521Z,0
2017-04-04T02:04:24.781Z,0
2017-04-04T02:05:35.035Z,0
2017-04-04T02:06:45.298Z,0
2017-04-04T02:07:55.559Z,0
2017-04-04T02:09:05.969Z,0
2017-04-04T02:10:16.235Z,0
2017-04-04T02:11:26.488Z,0
2017-04-04T02:12:36.743Z,0
2017-04-04T02:13:46.998Z,0
2017-04-04T02:14:57.259Z,0
2017-04-04T02:16:07.517Z,0
2017-04-04T02:17:17.767Z,0
2017-04-04T02:18:28.021Z,0
2017-04-04T02:19:38.274Z,0
2017-04-04T02:20:48.221Z,0
2017-04-04T02:21:58.471Z,0
2017-04-04T02:23:08.731Z,0
2017-04-04T02:24:18.992Z,0
2017-04-04T02:25:29.243Z,0
2017-04-04T02:26:39.502Z,0
2017-04-04T02:27:49.754Z,0
2017-04-04T02:29:00.008Z,0
2017-04-04T02:30:10.278Z,0
2017-04-04T02:31:20.539Z,0
2017-04-04T02:32:30.482Z,0
2017-04-04T02:33:40.739Z,0
2017-04-04T02:34:51.032Z,0
2017-04-04T02:36:01.292Z,0
2017-04-04T02:37:11.608Z,0
2017-04-04T02:38:21.867Z,0
2017-04-04T02:39:31.809Z,0
2017-04-04T02:40:42.064Z,0
2017-04-04T02:41:52.318Z,0
2017-04-04T02:43:02.574Z,0
2017-04-04T02:44:12.826Z,0
2017-04-04T02:45:23.077Z,0
2017-04-04T02:46:33.020Z,0
2017-04-04T02:47:43.282Z,0
2017-04-04T02:48:53.223Z,0
2017-04-04T02:50:03.491Z,0
2017-04-04T02:51:13.429Z,0
2017-04-04T02:52:23.729Z,0
2017-04-04T02:53:33.982Z,0
2017-04-04T02:54:44.246Z,0
2017-04-04T02:55:54.504Z,0
2017-04-04T02:57:04.129Z,0
2017-04-04T02:58:14.381Z,0
2017-04-04T02:59:24.639Z,0
2017-04-04T03:00:34.898Z,0
2017-04-04T03:01:44.840Z,0
2017-04-04T03:02:55.092Z,0
2017-04-04T03:04:05.037Z,0
2017-04-04T03:05:15.290Z,0
2017-04-04T03:06:25.582Z,0
2017-04-04T03:07:35.842Z,0
2017-04-04T03:08:46.099Z,0
2017-04-04T03:09:56.347Z,0
2017-04-04T03:11:06.604Z,0
2017-04-04T03:12:16.860Z,0
2017-04-04T03:13:27.111Z,0
2017-04-04T03:14:37.052Z,0
2017-04-04T03:15:47.307Z,0
2017-04-04T03:16:57.567Z,0
2017-04-04T03:18:07.819Z,0
2017-04-04T03:19:18.071Z,0
2017-04-04T03:20:28.326Z,0
2017-04-04T03:21:38.582Z,0
2017-04-04T03:22:48.839Z,0
2017-04-04T03:23:59.093Z,0
2017-04-04T03:25:09.031Z,0
2017-04-04T03:26:19.286Z,0
2017-04-04T03:27:29.550Z,0
2017-04-04T03:28:39.800Z,0
2017-04-04T03:29:50.060Z,0
2017-04-04T03:31:00.315Z,0
2017-04-04T03:32:10.575Z,0
2017-04-04T03:33:20.520Z,0
2017-04-04T03:34:30.778Z,0
2017-04-04T03:35:40.731Z,0
2017-04-04T03:36:50.989Z,0
2017-04-04T03:38:01.243Z,0
2017-04-04T03:39:11.181Z,0
2017-04-04T03:40:21.168Z,0
2017-04-04T03:41:31.425Z,0
2017-04-04T03:42:41.370Z,0
2017-04-04T03:43:51.621Z,0
2017-04-04T03:45:01.881Z,0
2017-04-04T03:46:12.137Z,0
2017-04-04T03:47:22.395Z,0
2017-04-04T03:48:32.656Z,0
2017-04-04T03:49:42.908Z,0
2017-04-04T03:50:53.166Z,0
2017-04-04T03:52:02.791Z,0
2017-04-04T03:53:13.040Z,0
2017-04-04T03:54:23.291Z,0
2017-04-04T03:55:33.236Z,0
2017-04-04T03:56:43.497Z,0
2017-04-04T03:57:53.750Z,0
2017-04-04T03:59:04.005Z,4
2017-04-04T04:00:14.261Z,0
2017-04-04T04:01:24.520Z,4
2017-04-04T04:02:34.774Z,4
2017-04-04T04:03:45.030Z,4
2017-04-04T04:04:54.982Z,8
2017-04-04T04:06:05.236Z,8
2017-04-04T04:07:15.494Z,8
2017-04-04T04:08:25.750Z,12
2017-04-04T04:09:35.683Z,12
2017-04-04T04:10:45.624Z,12
2017-04-04T04:11:55.891Z,16
2017-04-04T04:13:05.840Z,20
2017-04-04T04:14:16.089Z,24
2017-04-04T04:15:26.338Z,28
2017-04-04T04:16:35.970Z,28
2017-04-04T04:17:46.471Z,36
2017-04-04T04:18:56.446Z,36
2017-04-04T04:20:06.699Z,40
2017-04-04T04:21:16.975Z,52
2017-04-04T04:22:27.257Z,56
2017-04-04T04:23:37.513Z,64
2017-04-04T04:24:47.450Z,68
2017-04-04T04:25:57.697Z,76
2017-04-04T04:27:07.638Z,80
2017-04-04T04:28:17.887Z,88
2017-04-04T04:29:28.198Z,92
2017-04-04T04:30:38.138Z,104
2017-04-04T04:31:48.125Z,116
2017-04-04T04:32:58.384Z,128
2017-04-04T04:34:08.634Z,144
2017-04-04T04:35:18.898Z,160
2017-04-04T04:36:29.154Z,164
2017-04-04T04:37:39.408Z,168
2017-04-04T04:38:49.661Z,176
2017-04-04T04:39:59.609Z,192
2017-04-04T04:41:09.871Z,216
2017-04-04T04:42:20.126Z,248
2017-04-04T04:43:30.381Z,272
2017-04-04T04:44:40.638Z,276
2017-04-04T04:45:50.894Z,292
2017-04-04T04:47:01.156Z,324
2017-04-04T04:48:11.410Z,332
2017-04-04T04:49:21.348Z,356
2017-04-04T04:50:31.613Z,360
2017-04-04T04:51:41.864Z,412
2017-04-04T04:52:52.134Z,456
2017-04-04T04:54:02.390Z,488
2017-04-04T04:55:12.645Z,516
2017-04-04T04:56:22.584Z,532
2017-04-04T04:57:32.838Z,520
2017-04-04T04:58:43.102Z,528
2017-04-04T04:59:53.355Z,548
2017-04-04T05:01:03.608Z,552
2017-04-04T05:02:13.863Z,552
2017-04-04T05:03:23.870Z,560
2017-04-04T05:04:34.175Z,580
2017-04-04T05:05:44.437Z,616
2017-04-04T05:06:54.690Z,660
2017-04-04T05:08:04.951Z,700
2017-04-04T05:09:15.200Z,760
2017-04-04T05:10:25.462Z,824
2017-04-04T05:11:35.716Z,844
2017-04-04T05:12:45.970Z,920
2017-04-04T05:13:56.221Z,908
2017-04-04T05:15:06.157Z,904
2017-04-04T05:16:16.406Z,896
2017-04-04T05:17:26.662Z,888
2017-04-04T05:18:36.601Z,892
2017-04-04T05:19:46.899Z,916
2017-04-04T05:20:57.169Z,940
2017-04-04T05:22:07.431Z,956
2017-04-04T05:23:17.678Z,980
2017-04-04T05:24:27.935Z,1016
2017-04-04T05:25:38.189Z,1084
2017-04-04T05:26:48.447Z,940
2017-04-04T05:27:58.697Z,1024
2017-04-04T05:29:08.976Z,1120
2017-04-04T05:30:18.923Z,1132
2017-04-04T05:31:29.193Z,1168
2017-04-04T05:32:39.177Z,1192
2017-04-04T05:33:49.482Z,1264
2017-04-04T05:34:59.748Z,1236
2017-04-04T05:36:10.005Z,1308
2017-04-04T05:37:20.263Z,1280
2017-04-04T05:38:30.555Z,1388
2017-04-04T05:39:40.825Z,1424
2017-04-04T05:40:51.086Z,1432
2017-04-04T05:42:01.337Z,1400
2017-04-04T05:43:11.279Z,1448
2017-04-04T05:44:21.215Z,1476
2017-04-04T05:45:31.469Z,1504
2017-04-04T05:46:41.737Z,1668
2017-04-04T05:47:52.042Z,1876
2017-04-04T05:49:02.297Z,2044
2017-04-04T05:50:12.548Z,2180
2017-04-04T05:51:22.796Z,2364
2017-04-04T05:52:33.046Z,2232
2017-04-04T05:53:43.299Z,2332
2017-04-04T05:54:53.564Z,2464
2017-04-04T05:56:03.531Z,2204
2017-04-04T05:57:13.469Z,2228
2017-04-04T05:58:23.412Z,2480
2017-04-04T05:59:33.668Z,2604
2017-04-04T06:00:43.922Z,2792
2017-04-04T06:01:53.873Z,2804
2017-04-04T06:03:04.126Z,2796
2017-04-04T06:04:14.116Z,3136
2017-04-04T06:05:24.381Z,3068
2017-04-04T06:06:34.335Z,3304
2017-04-04T06:07:44.601Z,3332
2017-04-04T06:08:54.852Z,3360
2017-04-04T06:10:04.805Z,3852
2017-04-04T06:11:15.065Z,4236
2017-04-04T06:12:25.324Z,4488
2017-04-04T06:13:35.582Z,5184
2017-04-04T06:14:45.835Z,5596
2017-04-04T06:15:56.094Z,5800
2017-04-04T06:17:06.033Z,5460
2017-04-04T06:18:16.292Z,4988
2017-04-04T06:19:26.551Z,4668
2017-04-04T06:20:36.801Z,4764
2017-04-04T06:21:47.062Z,4824
2017-04-04T06:22:57.312Z,4484
2017-04-04T06:24:07.565Z,4680
2017-04-04T06:25:17.513Z,5164
2017-04-04T06:26:27.456Z,5744
2017-04-04T06:27:37.717Z,5244
2017-04-04T06:28:47.967Z,5368
2017-04-04T06:29:58.263Z,5520
2017-04-04T06:31:07.884Z,5568
2017-04-04T06:32:17.832Z,5520
2017-04-04T06:33:28.090Z,5328
2017-04-04T06:34:38.344Z,5204
2017-04-04T06:35:48.601Z,5648
2017-04-04T06:36:58.860Z,5828
2017-04-04T06:38:08.806Z,5464
2017-04-04T06:39:18.749Z,5880
2017-04-04T06:40:29.009Z,5256
2017-04-04T06:41:39.263Z,5112
2017-04-04T06:42:51.211Z,4808
2017-04-04T06:44:01.472Z,4500
2017-04-04T06:45:11.455Z,4260
2017-04-04T06:46:21.719Z,4020
2017-04-04T06:47:31.664Z,3972
2017-04-04T06:48:41.916Z,3964
2017-04-04T06:49:52.184Z,4000
2017-04-04T06:51:02.452Z,4084
2017-04-04T06:52:12.080Z,4120
2017-04-04T06:53:22.332Z,4136
2017-04-04T06:54:32.271Z,4156
2017-04-04T06:55:42.535Z,4252
2017-04-04T06:56:52.482Z,4268
2017-04-04T06:58:02.737Z,4324
2017-04-04T06:59:12.686Z,4356
2017-04-04T07:00:22.633Z,4308
2017-04-04T07:01:32.888Z,4436
2017-04-04T07:02:43.155Z,4384
2017-04-04T07:03:53.467Z,4532
2017-04-04T07:05:03.722Z,4532
2017-04-04T07:06:13.981Z,4696
2017-04-04T07:07:24.278Z,4944
2017-04-04T07:08:34.223Z,5040
2017-04-04T07:09:44.482Z,5272
2017-04-04T07:10:54.423Z,5472
2017-04-04T07:12:04.682Z,5600
2017-04-04T07:13:14.626Z,5716
2017-04-04T07:14:24.563Z,5736
2017-04-04T07:15:34.815Z,5804
2017-04-04T07:16:45.075Z,5900
2017-04-04T07:17:55.371Z,5908
2017-04-04T07:19:05.627Z,6020
2017-04-04T07:20:15.880Z,6052
2017-04-04T07:21:25.823Z,6020
2017-04-04T07:22:35.759Z,6148
2017-04-04T07:23:46.014Z,6220
2017-04-04T07:24:56.272Z,6212
2017-04-04T07:26:06.529Z,6204
2017-04-04T07:27:16.786Z,6180
2017-04-04T07:28:27.042Z,6140
2017-04-04T07:29:36.987Z,6132
2017-04-04T07:30:47.240Z,6108
2017-04-04T07:31:57.186Z,6108
2017-04-04T07:33:07.444Z,6120
2017-04-04T07:34:17.701Z,5984
2017-04-04T07:35:27.952Z,5932
2017-04-04T07:36:37.583Z,6100
2017-04-04T07:37:47.836Z,5956
2017-04-04T07:38:58.097Z,6132
2017-04-04T07:40:08.040Z,5940
2017-04-04T07:41:18.297Z,6248
2017-04-04T07:42:28.557Z,6192
2017-04-04T07:43:38.509Z,5808
2017-04-04T07:44:48.137Z,5724
2017-04-04T07:45:58.395Z,5948
2017-04-04T07:47:08.653Z,5536
2017-04-04T07:48:18.906Z,5444
2017-04-04T07:49:29.162Z,5460
2017-04-04T07:50:39.424Z,5548
2017-04-04T07:51:49.681Z,5468
2017-04-04T07:52:59.938Z,5512
2017-04-04T07:54:10.192Z,5568
2017-04-04T07:55:20.451Z,5588
2017-04-04T07:56:30.722Z,5604
2017-04-04T07:57:40.047Z,5656
2017-04-04T07:58:50.305Z,5640
2017-04-04T08:00:00.564Z,5636
2017-04-04T08:01:10.824Z,5652
2017-04-04T08:02:20.769Z,5772
2017-04-04T08:03:31.041Z,5860
2017-04-04T08:04:41.300Z,6048
2017-04-04T08:05:51.250Z,6204
2017-04-04T08:07:01.508Z,6272
2017-04-04T08:08:11.772Z,6204
2017-04-04T08:09:21.407Z,5832
2017-04-04T08:10:31.666Z,5536
2017-04-04T08:11:41.928Z,5320
2017-04-04T08:12:52.187Z,4980
2017-04-04T08:14:02.125Z,4876
2017-04-04T08:15:12.441Z,4824
2017-04-04T08:16:22.713Z,4848
2017-04-04T08:17:32.971Z,4852
2017-04-04T08:18:42.602Z,4996
2017-04-04T08:19:52.863Z,5004
2017-04-04T08:21:03.120Z,5132
2017-04-04T08:22:13.384Z,5432
2017-04-04T08:23:23.638Z,5876
2017-04-04T08:24:33.894Z,6196
2017-04-04T08:25:43.523Z,6364
2017-04-04T08:26:53.792Z,5784
2017-04-04T08:28:04.058Z,5224
2017-04-04T08:29:13.683Z,5136
2017-04-04T08:30:23.310Z,5192
2017-04-04T08:31:33.569Z,5344
2017-04-04T08:32:43.825Z,5840
2017-04-04T08:33:54.083Z,6560
2017-04-04T08:35:04.344Z,7024
2017-04-04T08:36:14.648Z,7584
2017-04-04T08:37:24.907Z,7936
2017-04-04T08:38:34.541Z,7964
2017-04-04T08:39:44.489Z,8068
2017-04-04T08:40:54.121Z,8148
2017-04-04T08:42:04.375Z,8048
2017-04-04T08:43:14.629Z,7604
2017-04-04T08:44:24.881Z,7232
2017-04-04T08:45:34.830Z,6564
2017-04-04T08:46:45.088Z,5960
2017-04-04T08:47:55.037Z,5960
2017-04-04T08:49:05.294Z,5952
2017-04-04T08:50:15.554Z,5816
2017-04-04T08:51:25.509Z,5844
2017-04-04T08:52:35.461Z,5800
2017-04-04T08:53:45.443Z,5768
2017-04-04T08:54:55.424Z,5848
2017-04-04T08:56:05.687Z,5896
2017-04-04T08:57:15.638Z,5992
2017-04-04T08:58:25.585Z,6044
2017-04-04T08:59:35.530Z,6128
2017-04-04T09:00:45.790Z,6236
2017-04-04T09:01:56.053Z,6312
2017-04-04T09:03:06.044Z,6360
2017-04-04T09:04:16.447Z,6400
2017-04-04T09:05:26.936Z,6536
2017-04-04T09:06:37.247Z,6716
2017-04-04T09:07:47.231Z,6848
2017-04-04T09:08:57.486Z,7024
2017-04-04T09:10:07.425Z,7200
2017-04-04T09:11:17.687Z,7368
2017-04-04T09:12:27.942Z,7504
2017-04-04T09:13:38.202Z,7592
2017-04-04T09:14:48.500Z,7620
2017-04-04T09:15:58.759Z,7732
2017-04-04T09:17:09.021Z,7836
2017-04-04T09:18:19.291Z,7904
2017-04-04T09:19:29.553Z,8048
2017-04-04T09:20:39.814Z,8344
2017-04-04T09:21:50.082Z,8524
2017-04-04T09:23:00.039Z,8576
2017-04-04T09:24:09.987Z,8744
2017-04-04T09:25:20.245Z,8704
2017-04-04T09:26:30.508Z,8692
2017-04-04T09:27:40.775Z,8664
2017-04-04T09:28:50.402Z,8556
2017-04-04T09:30:00.037Z,8684
2017-04-04T09:31:10.338Z,9000
2017-04-04T09:32:20.289Z,9260
2017-04-04T09:33:30.541Z,9420
2017-04-04T09:34:40.490Z,9676
2017-04-04T09:35:50.463Z,9688
2017-04-04T09:37:00.717Z,9668
2017-04-04T09:38:10.981Z,9908
2017-04-04T09:39:21.239Z,10420
2017-04-04T09:40:31.498Z,11080
2017-04-04T09:41:41.129Z,11568
2017-04-04T09:42:51.385Z,11696
2017-04-04T09:44:01.642Z,11932
2017-04-04T09:45:11.904Z,12976
2017-04-04T09:46:22.157Z,13724
2017-04-04T09:47:32.417Z,13736
2017-04-04T09:48:42.364Z,14416
2017-04-04T09:49:52.622Z,14896
2017-04-04T09:51:02.914Z,15180
2017-04-04T09:52:12.853Z,15188
2017-04-04T09:53:22.487Z,15168
2017-04-04T09:54:32.740Z,15648
2017-04-04T09:55:43.090Z,16276
2017-04-04T09:56:53.042Z,17536
2017-04-04T09:58:03.310Z,17952
2017-04-04T09:59:13.568Z,17568
2017-04-04T10:00:23.827Z,16024
2017-04-04T10:01:34.087Z,14916
2017-04-04T10:02:44.035Z,14212
2017-04-04T10:03:54.294Z,13832
2017-04-04T10:05:04.240Z,13196
2017-04-04T10:06:13.871Z,12104
2017-04-04T10:07:24.136Z,11812
2017-04-04T10:08:34.086Z,11620
2017-04-04T10:09:44.349Z,11384
2017-04-04T10:10:54.605Z,11240
2017-04-04T10:12:04.869Z,10752
2017-04-04T10:13:14.810Z,10156
2017-04-04T10:14:25.075Z,9544
2017-04-04T10:15:35.030Z,9204
2017-04-04T10:16:44.989Z,9288
2017-04-04T10:17:55.251Z,9552
2017-04-04T10:19:05.510Z,9452
2017-04-04T10:20:15.771Z,9260
2017-04-04T10:21:26.028Z,9156
2017-04-04T10:22:36.290Z,9424
2017-04-04T10:23:46.549Z,9712
2017-04-04T10:24:56.533Z,10088
2017-04-04T10:26:06.790Z,10268
2017-04-04T10:27:16.737Z,10348
2017-04-04T10:28:26.677Z,10000
2017-04-04T10:29:36.931Z,10620
2017-04-04T10:30:47.191Z,11028
2017-04-04T10:31:57.138Z,11336
2017-04-04T10:33:07.398Z,11488
2017-04-04T10:34:17.663Z,10840
2017-04-04T10:35:27.924Z,10892
2017-04-04T10:36:38.184Z,10480
2017-04-04T10:37:48.128Z,10652
2017-04-04T10:38:58.386Z,10796
2017-04-04T10:40:08.649Z,10316
2017-04-04T10:41:18.912Z,10208
2017-04-04T10:42:29.172Z,9964
2017-04-04T10:43:39.434Z,9420
2017-04-04T10:44:49.698Z,9524
2017-04-04T10:45:59.954Z,9264
2017-04-04T10:47:10.228Z,9508
2017-04-04T10:48:19.856Z,9508
2017-04-04T10:49:29.799Z,9560
2017-04-04T10:50:39.740Z,9544
2017-04-04T10:51:49.997Z,9732
2017-04-04T10:52:59.953Z,9868
2017-04-04T10:54:10.212Z,10260
2017-04-04T10:55:20.161Z,9744
2017-04-04T10:56:30.421Z,10256
2017-04-04T10:57:39.738Z,10164
2017-04-04T10:58:49.996Z,10316
2017-04-04T11:00:00.251Z,10368
2017-04-04T11:01:10.514Z,10576
2017-04-04T11:02:20.770Z,10700
2017-04-04T11:03:31.029Z,10416
2017-04-04T11:04:41.288Z,10276
2017-04-04T11:05:51.550Z,11336
2017-04-04T11:07:01.873Z,11420
2017-04-04T11:08:11.817Z,10428
2017-04-04T11:09:22.072Z,10580
2017-04-04T11:10:32.330Z,9832
2017-04-04T11:11:42.280Z,9404
2017-04-04T11:12:51.915Z,9684
2017-04-04T11:14:01.917Z,10084
2017-04-04T11:15:12.177Z,10460
2017-04-04T11:16:22.442Z,11600
2017-04-04T11:17:32.699Z,14456
2017-04-04T11:18:42.960Z,25088
2017-04-04T11:19:52.905Z,35488
2017-04-04T11:21:02.854Z,43360
2017-04-04T11:22:12.822Z,47232
2017-04-04T11:23:23.086Z,53984
2017-04-04T11:24:33.355Z,57536
2017-04-04T11:25:43.316Z,59776
2017-04-04T11:26:53.579Z,58304
2017-04-04T11:28:03.530Z,59360
2017-04-04T11:29:13.792Z,56864
2017-04-04T11:30:23.741Z,57504
2017-04-04T11:31:34.010Z,58848
2017-04-04T11:32:44.274Z,55424
2017-04-04T11:33:54.231Z,53792
2017-04-04T11:35:04.502Z,58784
2017-04-04T11:36:14.455Z,56064
2017-04-04T11:37:24.456Z,52928
2017-04-04T11:38:34.723Z,52128
2017-04-04T11:39:44.356Z,55648
2017-04-04T11:40:54.620Z,46176
2017-04-04T11:42:04.567Z,47680
2017-04-04T11:43:14.834Z,50112
2017-04-04T11:44:25.095Z,48672
2017-04-04T11:45:34.736Z,45184
2017-04-04T11:46:44.686Z,47648
2017-04-04T11:47:54.334Z,47296
2017-04-04T11:49:04.601Z,47872
2017-04-04T11:50:14.864Z,27552
2017-04-04T11:51:25.184Z,14340
2017-04-04T11:52:35.137Z,12444
2017-04-04T11:53:45.091Z,18272
2017-04-04T11:54:55.352Z,44096
2017-04-04T11:56:05.306Z,13724
2017-04-04T11:57:15.567Z,34496
2017-04-04T11:58:25.842Z,51648
2017-04-04T11:59:36.114Z,52736
2017-04-04T12:00:46.086Z,53920
2017-04-04T12:01:56.043Z,51616
2017-04-04T12:03:06.312Z,51808
2017-04-04T12:04:16.263Z,57888
2017-04-04T12:05:26.214Z,60064
2017-04-04T12:06:36.171Z,37792
2017-04-04T12:07:46.435Z,59104
2017-04-04T12:08:56.699Z,62176
2017-04-04T12:10:06.965Z,58304
2017-04-04T12:11:16.922Z,56736
2017-04-04T12:12:27.190Z,56160
2017-04-04T12:13:37.456Z,52672
2017-04-04T12:14:47.409Z,55680
2017-04-04T12:15:57.686Z,56448
2017-04-04T12:17:07.961Z,57472
2017-04-04T12:18:18.225Z,56992
2017-04-04T12:19:28.180Z,54560
2017-04-04T12:20:38.140Z,59808
2017-04-04T12:21:48.411Z,57760
2017-04-04T12:22:58.369Z,56576
2017-04-04T12:24:08.016Z,59616
2017-04-04T12:25:18.287Z,60448
2017-04-04T12:26:28.565Z,57056
2017-04-04T12:27:38.527Z,55456
2017-04-04T12:28:48.790Z,55648
2017-04-04T12:29:59.063Z,55360
2017-04-04T12:31:09.328Z,57760
2017-04-04T12:32:19.603Z,61024
2017-04-04T12:33:29.872Z,18632
2017-04-04T12:34:40.143Z,58944
2017-04-04T12:35:50.417Z,57536
2017-04-04T12:37:00.373Z,56960
2017-04-04T12:38:10.335Z,59264
2017-04-04T12:39:20.297Z,55424
2017-04-04T12:40:30.587Z,58496
2017-04-04T12:41:40.547Z,49696
2017-04-04T12:42:50.186Z,23296
2017-04-04T12:44:00.143Z,15420
2017-04-04T12:45:10.101Z,53248
2017-04-04T12:46:20.375Z,22144
2017-04-04T12:47:30.645Z,45472
2017-04-04T12:48:40.605Z,59104
2017-04-04T12:49:50.249Z,14604
2017-04-04T12:51:00.524Z,12088
2017-04-04T12:52:10.806Z,13168
2017-04-04T12:53:20.767Z,15024
2017-04-04T12:54:31.040Z,15432
2017-04-04T12:55:40.688Z,15012
2017-04-04T12:56:50.640Z,14648
2017-04-04T12:58:00.598Z,11472
2017-04-04T12:59:10.870Z,11704
2017-04-04T13:00:20.826Z,14200
2017-04-04T13:01:30.780Z,15896
2017-04-04T13:02:41.041Z,12372
2017-04-04T13:03:51.305Z,11996
2017-04-04T13:05:01.567Z,11632
2017-04-04T13:06:11.835Z,13536
2017-04-04T13:07:22.107Z,10728
2017-04-04T13:08:32.062Z,11020
2017-04-04T13:09:42.012Z,12600
2017-04-04T13:10:52.281Z,55552
2017-04-04T13:12:02.542Z,15940
2017-04-04T13:13:12.797Z,13916
2017-04-04T13:14:22.756Z,18720
2017-04-04T13:15:33.030Z,12320
2017-04-04T13:16:42.978Z,11940
2017-04-04T13:17:53.249Z,17952
2017-04-04T13:19:03.517Z,13404
2017-04-04T13:20:13.931Z,60160
2017-04-04T13:21:24.194Z,19840
2017-04-04T13:22:34.463Z,55264
2017-04-04T13:23:44.722Z,23072
2017-04-04T13:24:54.991Z,14032
2017-04-04T13:26:06.957Z,19840
2017-04-04T13:27:17.222Z,28544
2017-04-04T13:28:27.490Z,21504
2017-04-04T13:29:37.131Z,26624
2017-04-04T13:30:47.398Z,18112
2017-04-04T13:31:57.666Z,51360
2017-04-04T13:33:07.615Z,26432
2017-04-04T13:34:17.878Z,11100
2017-04-04T13:35:28.152Z,14532
2017-04-04T13:36:37.795Z,63040
2017-04-04T13:37:47.746Z,37440
2017-04-04T13:38:57.691Z,18080
2017-04-04T13:40:07.960Z,42720
2017-04-04T13:41:18.238Z,29792
2017-04-04T13:42:28.566Z,13316
2017-04-04T13:43:38.520Z,17440
2017-04-04T13:44:48.465Z,11912
2017-04-04T13:45:58.432Z,14760
2017-04-04T13:47:08.072Z,72512
2017-04-04T13:48:18.334Z,68704
2017-04-04T13:49:28.600Z,27968
2017-04-04T13:50:38.869Z,60448
2017-04-04T13:51:48.846Z,47456
2017-04-04T13:52:59.116Z,24288
2017-04-04T13:54:09.382Z,45536
2017-04-04T13:55:19.338Z,55328
2017-04-04T13:56:29.294Z,47904
2017-04-04T13:57:39.778Z,43008
2017-04-04T13:58:50.069Z,52736
2017-04-04T13:59:59.734Z,52832
2017-04-04T14:01:09.998Z,45152
2017-04-04T14:02:20.261Z,36320
2017-04-04T14:03:30.530Z,38816
2017-04-04T14:04:40.800Z,38688
2017-04-04T14:05:50.763Z,32672
2017-04-04T14:07:01.028Z,30912
2017-04-04T14:08:11.300Z,44448
2017-04-04T14:09:21.254Z,56160
2017-04-04T14:10:31.519Z,42464
2017-04-04T14:11:41.785Z,39552
2017-04-04T14:12:52.051Z,39424
2017-04-04T14:14:02.320Z,50496
2017-04-04T14:15:12.272Z,59552
2017-04-04T14:16:22.548Z,65504
2017-04-04T14:17:32.817Z,69216
2017-04-04T14:18:42.772Z,66944
2017-04-04T14:19:52.420Z,67744
2017-04-04T14:21:02.692Z,65312
2017-04-04T14:22:12.333Z,68128
2017-04-04T14:23:21.658Z,66272
2017-04-04T14:24:31.305Z,60896
2017-04-04T14:25:41.589Z,65024
2017-04-04T14:26:51.902Z,64704
2017-04-04T14:28:02.168Z,64256
2017-04-04T14:29:12.131Z,64736
2017-04-04T14:30:22.403Z,65184
2017-04-04T14:31:32.380Z,63776
2017-04-04T14:32:43.074Z,63168
2017-04-04T14:33:54.340Z,60544
2017-04-04T14:35:05.303Z,58528
2017-04-04T14:36:16.442Z,55168
2017-04-04T14:37:27.531Z,57536
2017-04-04T14:38:38.682Z,63488
2017-04-04T14:39:49.833Z,50688
2017-04-04T14:41:00.863Z,61088
2017-04-04T14:42:11.056Z,7192
2017-04-04T14:43:21.025Z,8596
2017-04-04T14:44:30.976Z,7544
2017-04-04T14:45:41.250Z,8596
2017-04-04T14:46:51.534Z,8204
2017-04-04T14:48:01.486Z,6840
2017-04-04T14:49:11.759Z,6648
2017-04-04T14:50:22.030Z,6128
2017-04-04T14:51:31.981Z,6836
2017-04-04T14:52:42.249Z,6844
2017-04-04T14:53:52.204Z,6736
2017-04-04T14:55:02.465Z,5388
2017-04-04T14:56:12.418Z,6900
2017-04-04T14:57:22.694Z,6560
2017-04-04T14:58:32.332Z,5424
2017-04-04T14:59:42.286Z,5004
2017-04-04T15:00:52.238Z,5200
2017-04-04T15:02:02.510Z,5344
2017-04-04T15:03:12.775Z,5728
2017-04-04T15:04:23.043Z,4792
2017-04-04T15:05:33.302Z,5004
2017-04-04T15:06:43.566Z,4840
2017-04-04T15:07:53.829Z,4424
2017-04-04T15:09:03.465Z,4668
2017-04-04T15:10:13.098Z,4264
2017-04-04T15:11:23.359Z,5076
2017-04-04T15:12:33.623Z,5276
2017-04-04T15:13:43.886Z,4772
2017-04-04T15:14:54.159Z,5716
2017-04-04T15:16:04.431Z,6196
2017-04-04T15:17:14.699Z,6468
2017-04-04T15:18:24.331Z,6764
2017-04-04T15:19:34.593Z,7116
2017-04-04T15:20:44.860Z,6408
2017-04-04T15:21:55.126Z,7944
2017-04-04T15:23:05.389Z,10936
2017-04-04T15:24:15.651Z,9152
2017-04-04T15:25:25.922Z,10220
2017-04-04T15:26:36.186Z,10796
2017-04-04T15:27:46.454Z,53344
2017-04-04T15:28:56.710Z,10076
2017-04-04T15:30:06.979Z,9360
2017-04-04T15:31:17.246Z,8560
2017-04-04T15:32:27.508Z,28800
2017-04-04T15:33:37.770Z,18688
2017-04-04T15:34:48.033Z,12376
2017-04-04T15:35:57.982Z,8384
2017-04-04T15:37:07.934Z,8840
2017-04-04T15:38:18.194Z,8248
2017-04-04T15:39:27.831Z,7600
2017-04-04T15:40:38.103Z,8248
2017-04-04T15:41:48.371Z,6900
2017-04-04T15:42:58.643Z,6544
2017-04-04T15:44:08.913Z,6948
2017-04-04T15:45:19.176Z,6620
2017-04-04T15:46:29.441Z,5648
2017-04-04T15:47:39.713Z,6208
2017-04-04T15:48:49.699Z,7760
2017-04-04T15:49:59.973Z,10524
2017-04-04T15:51:10.239Z,19616
2017-04-04T15:52:20.501Z,12248